Bookmark and Share
Track history (hours):
 

Bon Edda 2

Last reported at 2013-Jun-18 07:33 UTC. Time now 2014-Apr-19 17:19 UTC.
Position N 36°57' E 026°01'.
Warning: this ship's position is months out of date.

Length 17 m.

Type: Pleasure craft. MMSI: 211471610.

NotesDate/timePositionNaut miles runAvg speedWind from/ knotsBaromVisibWave heightAir tempDewpointWater temp
2013-Jun-18 07:33N 36°57' E 026°01'6 6.2
2013-Jun-18 06:33N 36°57' E 025°54'8 7.6
2013-Jun-18 05:33N 36°58' E 025°44'7 6.9
2013-Jun-18 04:33N 36°57' E 025°36'4 3.7
2013-Jun-18 03:33N 36°56' E 025°31'2 2.3
2013-Jun-18 02:28N 36°56' E 025°28'0 0.0
2013-Jun-18 01:31N 36°56' E 025°28'0 0.0
2013-Jun-18 00:28N 36°56' E 025°28'0 0.0
2013-Jun-17 23:28N 36°56' E 025°28'0 0.0
2013-Jun-17 22:22N 36°56' E 025°28'0 0.0
2013-Jun-17 21:22N 36°56' E 025°28'0 0.0
2013-Jun-17 20:16N 36°56' E 025°28'0 0.0
2013-Jun-17 19:22N 36°56' E 025°28'0 0.0
2013-Jun-17 17:22N 36°56' E 025°28'0 0.0
2013-Jun-17 16:31N 36°56' E 025°28'0 0.0
2013-Jun-17 15:22N 36°56' E 025°28'0 0.0
2013-Jun-17 14:31N 36°56' E 025°28'0 0.0
2013-Jun-17 13:31N 36°56' E 025°28'0 0.0
2013-Jun-17 12:28N 36°56' E 025°28'0 0.0
2013-Jun-17 11:31N 36°56' E 025°28'6 5.8
2013-Jun-17 10:33N 36°55' E 025°21'7 6.7
2013-Jun-17 09:33N 36°55' E 025°13'6 6.4
2013-Jun-17 08:33N 36°56' E 025°05'7 7.1
2013-Jun-17 07:33N 36°56' E 024°56'6 5.8
2013-Jun-17 06:33N 36°56' E 024°49'3 3.1
2013-Jun-17 05:31N 36°56' E 024°45'0 0.0
2013-Jun-17 04:13N 36°56' E 024°45'0 0.0
2013-Jun-17 03:31N 36°56' E 024°45'0 0.0
2013-Jun-17 02:31N 36°56' E 024°45'0 0.0
2013-Jun-17 01:19N 36°56' E 024°45'0 0.0
2013-Jun-17 00:31N 36°56' E 024°45'0 0.0
2013-Jun-16 23:31N 36°56' E 024°45'0 0.0
2013-Jun-16 22:31N 36°56' E 024°45'0 0.0
2013-Jun-16 21:25N 36°56' E 024°45'0 0.0
2013-Jun-16 20:31N 36°56' E 024°45'0 0.0
2013-Jun-16 19:07N 36°56' E 024°45'0 0.0
2013-Jun-16 18:25N 36°56' E 024°45'0 0.0
2013-Jun-16 17:31N 36°56' E 024°45'0 0.0
2013-Jun-16 16:31N 36°56' E 024°45'0 0.2
2013-Jun-16 15:30N 36°56' E 024°45'7 6.9
2013-Jun-16 14:33N 36°53' E 024°38'17 7.5
2013-Jun-16 12:14N 36°46' E 024°19'20 7.2
2013-Jun-16 09:28N 36°37' E 023°56'  

Dump ship's entire track history

sailing weather and tide predictions

Bon Edda 2 — DGWO2 — position and weather